sensor_id;sensor_type;location;lat;lon;timestamp;P1;durP1;ratioP1;P2;durP2;ratioP2
33902;SDS011;20194;50.950;5.346;2022-11-25T00:01:31;12.70;;;2.13;;
33902;SDS011;20194;50.950;5.346;2022-11-25T00:03:58;19.88;;;2.95;;
33902;SDS011;20194;50.950;5.346;2022-11-25T00:06:25;19.25;;;3.00;;
33902;SDS011;20194;50.950;5.346;2022-11-25T00:08:54;14.60;;;2.67;;
33902;SDS011;20194;50.950;5.346;2022-11-25T00:11:27;23.95;;;4.57;;
33902;SDS011;20194;50.950;5.346;2022-11-25T00:13:53;18.48;;;2.63;;
33902;SDS011;20194;50.950;5.346;2022-11-25T00:16:20;17.63;;;3.08;;
33902;SDS011;20194;50.950;5.346;2022-11-25T00:18:48;21.38;;;2.78;;
33902;SDS011;20194;50.950;5.346;2022-11-25T00:21:17;13.43;;;2.63;;
33902;SDS011;20194;50.950;5.346;2022-11-25T00:23:48;15.93;;;2.30;;
33902;SDS011;20194;50.950;5.346;2022-11-25T00:26:16;15.18;;;2.60;;
33902;SDS011;20194;50.950;5.346;2022-11-25T00:28:42;18.15;;;3.17;;
33902;SDS011;20194;50.950;5.346;2022-11-25T00:31:11;13.95;;;3.08;;
33902;SDS011;20194;50.950;5.346;2022-11-25T00:33:39;26.77;;;3.08;;
33902;SDS011;20194;50.950;5.346;2022-11-25T00:36:05;16.05;;;2.75;;
33902;SDS011;20194;50.950;5.346;2022-11-25T00:38:41;19.33;;;3.53;;
33902;SDS011;20194;50.950;5.346;2022-11-25T00:41:08;15.52;;;3.15;;
33902;SDS011;20194;50.950;5.346;2022-11-25T00:43:52;18.88;;;3.05;;
33902;SDS011;20194;50.950;5.346;2022-11-25T00:49:02;17.67;;;3.15;;
33902;SDS011;20194;50.950;5.346;2022-11-25T00:51:27;20.08;;;2.70;;
33902;SDS011;20194;50.950;5.346;2022-11-25T00:53:53;12.95;;;2.10;;
33902;SDS011;20194;50.950;5.346;2022-11-25T00:56:19;12.07;;;3.10;;
33902;SDS011;20194;50.950;5.346;2022-11-25T00:58:46;21.38;;;3.78;;
33902;SDS011;20194;50.950;5.346;2022-11-25T01:01:12;11.35;;;2.05;;
33902;SDS011;20194;50.950;5.346;2022-11-25T01:03:38;17.25;;;2.90;;
33902;SDS011;20194;50.950;5.346;2022-11-25T01:06:04;15.05;;;2.40;;
33902;SDS011;20194;50.950;5.346;2022-11-25T01:08:35;17.60;;;2.90;;
33902;SDS011;20194;50.950;5.346;2022-11-25T01:11:04;15.68;;;2.67;;
33902;SDS011;20194;50.950;5.346;2022-11-25T01:13:32;11.63;;;2.17;;
33902;SDS011;20194;50.950;5.346;2022-11-25T01:16:04;19.95;;;2.22;;
33902;SDS011;20194;50.950;5.346;2022-11-25T01:21:05;12.73;;;2.80;;
33902;SDS011;20194;50.950;5.346;2022-11-25T01:23:36;11.75;;;2.50;;
33902;SDS011;20194;50.950;5.346;2022-11-25T01:26:12;13.25;;;2.78;;
33902;SDS011;20194;50.950;5.346;2022-11-25T01:28:40;13.38;;;2.45;;
33902;SDS011;20194;50.950;5.346;2022-11-25T01:31:09;6.25;;;1.88;;
33902;SDS011;20194;50.950;5.346;2022-11-25T01:33:35;10.70;;;2.42;;
33902;SDS011;20194;50.950;5.346;2022-11-25T01:36:02;21.23;;;3.17;;
33902;SDS011;20194;50.950;5.346;2022-11-25T01:38:28;9.02;;;1.90;;
33902;SDS011;20194;50.950;5.346;2022-11-25T01:40:55;12.38;;;2.15;;
33902;SDS011;20194;50.950;5.346;2022-11-25T01:43:21;24.42;;;3.03;;
33902;SDS011;20194;50.950;5.346;2022-11-25T01:45:47;15.57;;;2.28;;
33902;SDS011;20194;50.950;5.346;2022-11-25T01:48:15;18.70;;;2.88;;
33902;SDS011;20194;50.950;5.346;2022-11-25T01:50:53;14.73;;;2.70;;
33902;SDS011;20194;50.950;5.346;2022-11-25T01:53:19;15.80;;;2.65;;
33902;SDS011;20194;50.950;5.346;2022-11-25T01:55:56;15.15;;;2.42;;
33902;SDS011;20194;50.950;5.346;2022-11-25T01:58:27;14.60;;;2.33;;
33902;SDS011;20194;50.950;5.346;2022-11-25T02:00:57;10.90;;;2.38;;
33902;SDS011;20194;50.950;5.346;2022-11-25T02:03:26;13.80;;;2.05;;
33902;SDS011;20194;50.950;5.346;2022-11-25T02:05:57;22.60;;;2.60;;
33902;SDS011;20194;50.950;5.346;2022-11-25T02:08:48;10.75;;;1.80;;
33902;SDS011;20194;50.950;5.346;2022-11-25T02:11:17;16.73;;;2.65;;
33902;SDS011;20194;50.950;5.346;2022-11-25T02:13:45;13.60;;;2.70;;
33902;SDS011;20194;50.950;5.346;2022-11-25T02:16:13;16.17;;;2.60;;
33902;SDS011;20194;50.950;5.346;2022-11-25T02:18:38;17.65;;;2.53;;
33902;SDS011;20194;50.950;5.346;2022-11-25T02:21:04;16.42;;;2.40;;
33902;SDS011;20194;50.950;5.346;2022-11-25T02:23:53;22.08;;;3.00;;
33902;SDS011;20194;50.950;5.346;2022-11-25T02:26:34;14.73;;;2.50;;
33902;SDS011;20194;50.950;5.346;2022-11-25T02:29:00;19.20;;;2.42;;
33902;SDS011;20194;50.950;5.346;2022-11-25T02:31:26;9.02;;;1.75;;
33902;SDS011;20194;50.950;5.346;2022-11-25T02:33:52;17.63;;;2.80;;
33902;SDS011;20194;50.950;5.346;2022-11-25T02:36:19;17.70;;;2.45;;
33902;SDS011;20194;50.950;5.346;2022-11-25T02:38:51;15.88;;;1.80;;
33902;SDS011;20194;50.950;5.346;2022-11-25T02:41:21;5.65;;;1.63;;
33902;SDS011;20194;50.950;5.346;2022-11-25T02:43:52;7.13;;;1.35;;
33902;SDS011;20194;50.950;5.346;2022-11-25T02:46:20;3.40;;;0.73;;
33902;SDS011;20194;50.950;5.346;2022-11-25T02:48:48;4.95;;;0.77;;
33902;SDS011;20194;50.950;5.346;2022-11-25T02:51:16;7.20;;;1.05;;
33902;SDS011;20194;50.950;5.346;2022-11-25T02:53:44;9.13;;;1.70;;
33902;SDS011;20194;50.950;5.346;2022-11-25T02:56:10;4.78;;;1.00;;
33902;SDS011;20194;50.950;5.346;2022-11-25T02:58:37;4.53;;;0.90;;
33902;SDS011;20194;50.950;5.346;2022-11-25T03:01:04;9.50;;;1.42;;
33902;SDS011;20194;50.950;5.346;2022-11-25T03:03:30;2.05;;;1.10;;
33902;SDS011;20194;50.950;5.346;2022-11-25T03:05:55;7.70;;;1.73;;
33902;SDS011;20194;50.950;5.346;2022-11-25T03:08:21;5.93;;;0.95;;
33902;SDS011;20194;50.950;5.346;2022-11-25T03:10:47;7.63;;;1.95;;
33902;SDS011;20194;50.950;5.346;2022-11-25T03:13:13;10.85;;;1.27;;
33902;SDS011;20194;50.950;5.346;2022-11-25T03:15:39;4.15;;;1.00;;
33902;SDS011;20194;50.950;5.346;2022-11-25T03:18:05;8.95;;;1.20;;
33902;SDS011;20194;50.950;5.346;2022-11-25T03:20:31;10.15;;;1.00;;
33902;SDS011;20194;50.950;5.346;2022-11-25T03:22:59;5.47;;;1.05;;
33902;SDS011;20194;50.950;5.346;2022-11-25T03:25:24;3.85;;;0.70;;
33902;SDS011;20194;50.950;5.346;2022-11-25T03:27:50;12.52;;;1.17;;
33902;SDS011;20194;50.950;5.346;2022-11-25T03:30:20;9.07;;;1.20;;
33902;SDS011;20194;50.950;5.346;2022-11-25T03:32:47;7.80;;;1.48;;
33902;SDS011;20194;50.950;5.346;2022-11-25T03:35:13;6.03;;;1.10;;
33902;SDS011;20194;50.950;5.346;2022-11-25T03:37:39;4.10;;;0.75;;
33902;SDS011;20194;50.950;5.346;2022-11-25T03:40:05;8.57;;;1.15;;
33902;SDS011;20194;50.950;5.346;2022-11-25T03:42:32;11.75;;;1.30;;
33902;SDS011;20194;50.950;5.346;2022-11-25T03:44:58;10.00;;;1.15;;
33902;SDS011;20194;50.950;5.346;2022-11-25T03:47:24;3.20;;;0.75;;
33902;SDS011;20194;50.950;5.346;2022-11-25T03:49:50;4.95;;;0.95;;
33902;SDS011;20194;50.950;5.346;2022-11-25T03:52:16;7.15;;;0.95;;
33902;SDS011;20194;50.950;5.346;2022-11-25T03:54:42;4.78;;;1.17;;
33902;SDS011;20194;50.950;5.346;2022-11-25T03:57:08;3.25;;;0.98;;
33902;SDS011;20194;50.950;5.346;2022-11-25T03:59:34;7.20;;;1.50;;
33902;SDS011;20194;50.950;5.346;2022-11-25T04:01:59;3.22;;;0.90;;
33902;SDS011;20194;50.950;5.346;2022-11-25T04:04:25;4.10;;;0.98;;
33902;SDS011;20194;50.950;5.346;2022-11-25T04:06:51;5.57;;;1.98;;
33902;SDS011;20194;50.950;5.346;2022-11-25T04:09:17;6.30;;;1.20;;
33902;SDS011;20194;50.950;5.346;2022-11-25T04:11:42;5.22;;;1.67;;
33902;SDS011;20194;50.950;5.346;2022-11-25T04:14:26;10.25;;;1.45;;
33902;SDS011;20194;50.950;5.346;2022-11-25T04:16:52;2.22;;;1.10;;
33902;SDS011;20194;50.950;5.346;2022-11-25T04:19:17;6.53;;;1.13;;
33902;SDS011;20194;50.950;5.346;2022-11-25T04:21:43;4.88;;;1.25;;
33902;SDS011;20194;50.950;5.346;2022-11-25T04:24:09;5.05;;;1.33;;
33902;SDS011;20194;50.950;5.346;2022-11-25T04:26:34;9.45;;;1.02;;
33902;SDS011;20194;50.950;5.346;2022-11-25T04:29:00;5.60;;;1.45;;
33902;SDS011;20194;50.950;5.346;2022-11-25T04:31:26;3.38;;;1.05;;
33902;SDS011;20194;50.950;5.346;2022-11-25T04:33:52;7.35;;;1.45;;
33902;SDS011;20194;50.950;5.346;2022-11-25T04:36:18;6.80;;;1.60;;
33902;SDS011;20194;50.950;5.346;2022-11-25T04:38:43;9.07;;;1.50;;
33902;SDS011;20194;50.950;5.346;2022-11-25T04:41:09;8.32;;;1.48;;
33902;SDS011;20194;50.950;5.346;2022-11-25T04:43:35;7.80;;;1.60;;
33902;SDS011;20194;50.950;5.346;2022-11-25T04:46:01;10.40;;;1.92;;
33902;SDS011;20194;50.950;5.346;2022-11-25T04:48:27;11.20;;;1.77;;
33902;SDS011;20194;50.950;5.346;2022-11-25T04:50:53;13.93;;;1.98;;
33902;SDS011;20194;50.950;5.346;2022-11-25T04:53:19;14.27;;;1.80;;
33902;SDS011;20194;50.950;5.346;2022-11-25T04:55:45;13.82;;;2.58;;
33902;SDS011;20194;50.950;5.346;2022-11-25T04:58:10;9.43;;;1.65;;
33902;SDS011;20194;50.950;5.346;2022-11-25T05:00:36;15.15;;;2.22;;
33902;SDS011;20194;50.950;5.346;2022-11-25T05:03:02;20.13;;;2.78;;
33902;SDS011;20194;50.950;5.346;2022-11-25T05:05:28;13.27;;;2.13;;
33902;SDS011;20194;50.950;5.346;2022-11-25T05:07:53;12.95;;;2.63;;
33902;SDS011;20194;50.950;5.346;2022-11-25T05:10:20;16.65;;;1.90;;
33902;SDS011;20194;50.950;5.346;2022-11-25T05:12:46;10.82;;;2.97;;
33902;SDS011;20194;50.950;5.346;2022-11-25T05:15:12;15.20;;;2.58;;
33902;SDS011;20194;50.950;5.346;2022-11-25T05:17:38;14.80;;;3.15;;
33902;SDS011;20194;50.950;5.346;2022-11-25T05:20:04;14.85;;;2.55;;
33902;SDS011;20194;50.950;5.346;2022-11-25T05:22:31;14.13;;;2.05;;
33902;SDS011;20194;50.950;5.346;2022-11-25T05:24:57;13.55;;;1.90;;
33902;SDS011;20194;50.950;5.346;2022-11-25T05:27:24;14.88;;;2.60;;
33902;SDS011;20194;50.950;5.346;2022-11-25T05:29:50;8.40;;;2.35;;
33902;SDS011;20194;50.950;5.346;2022-11-25T05:32:16;13.77;;;2.85;;
33902;SDS011;20194;50.950;5.346;2022-11-25T05:34:41;11.57;;;2.00;;
33902;SDS011;20194;50.950;5.346;2022-11-25T05:37:08;16.95;;;2.13;;
33902;SDS011;20194;50.950;5.346;2022-11-25T05:39:34;12.98;;;2.03;;
33902;SDS011;20194;50.950;5.346;2022-11-25T05:42:00;9.43;;;2.30;;
33902;SDS011;20194;50.950;5.346;2022-11-25T05:44:26;12.27;;;2.83;;
33902;SDS011;20194;50.950;5.346;2022-11-25T05:46:52;9.10;;;2.38;;
33902;SDS011;20194;50.950;5.346;2022-11-25T05:49:17;15.90;;;3.20;;
33902;SDS011;20194;50.950;5.346;2022-11-25T05:51:45;12.65;;;2.38;;
33902;SDS011;20194;50.950;5.346;2022-11-25T05:54:11;7.03;;;2.20;;
33902;SDS011;20194;50.950;5.346;2022-11-25T05:56:37;18.23;;;2.72;;
33902;SDS011;20194;50.950;5.346;2022-11-25T05:59:03;10.88;;;3.30;;
33902;SDS011;20194;50.950;5.346;2022-11-25T06:01:30;14.60;;;2.47;;
33902;SDS011;20194;50.950;5.346;2022-11-25T06:04:02;14.57;;;2.60;;
33902;SDS011;20194;50.950;5.346;2022-11-25T06:06:29;10.55;;;2.47;;
33902;SDS011;20194;50.950;5.346;2022-11-25T06:08:55;8.43;;;2.22;;
33902;SDS011;20194;50.950;5.346;2022-11-25T06:11:21;7.93;;;2.42;;
33902;SDS011;20194;50.950;5.346;2022-11-25T06:13:47;11.93;;;2.30;;
33902;SDS011;20194;50.950;5.346;2022-11-25T06:16:16;8.73;;;2.33;;
33902;SDS011;20194;50.950;5.346;2022-11-25T06:18:43;12.85;;;2.60;;
33902;SDS011;20194;50.950;5.346;2022-11-25T06:21:09;17.58;;;2.58;;
33902;SDS011;20194;50.950;5.346;2022-11-25T06:23:35;14.68;;;2.40;;
33902;SDS011;20194;50.950;5.346;2022-11-25T06:26:05;10.68;;;2.58;;
33902;SDS011;20194;50.950;5.346;2022-11-25T06:28:36;14.35;;;2.55;;
33902;SDS011;20194;50.950;5.346;2022-11-25T06:31:07;11.20;;;2.35;;
33902;SDS011;20194;50.950;5.346;2022-11-25T06:33:38;11.93;;;2.97;;
33902;SDS011;20194;50.950;5.346;2022-11-25T06:36:04;9.55;;;2.47;;
33902;SDS011;20194;50.950;5.346;2022-11-25T06:38:32;7.50;;;2.60;;
33902;SDS011;20194;50.950;5.346;2022-11-25T06:40:58;18.35;;;2.97;;
33902;SDS011;20194;50.950;5.346;2022-11-25T06:43:28;8.43;;;2.30;;
33902;SDS011;20194;50.950;5.346;2022-11-25T06:45:54;10.85;;;2.60;;
33902;SDS011;20194;50.950;5.346;2022-11-25T06:48:27;9.68;;;2.58;;
33902;SDS011;20194;50.950;5.346;2022-11-25T06:50:57;17.48;;;2.80;;
33902;SDS011;20194;50.950;5.346;2022-11-25T06:53:24;15.50;;;2.25;;
33902;SDS011;20194;50.950;5.346;2022-11-25T06:56:00;11.23;;;2.78;;
33902;SDS011;20194;50.950;5.346;2022-11-25T06:58:53;13.18;;;2.88;;
33902;SDS011;20194;50.950;5.346;2022-11-25T07:01:23;14.63;;;2.92;;
33902;SDS011;20194;50.950;5.346;2022-11-25T07:03:55;15.77;;;2.45;;
33902;SDS011;20194;50.950;5.346;2022-11-25T07:06:23;7.68;;;2.70;;
33902;SDS011;20194;50.950;5.346;2022-11-25T07:08:49;14.23;;;3.17;;
33902;SDS011;20194;50.950;5.346;2022-11-25T07:11:17;13.15;;;3.53;;
33902;SDS011;20194;50.950;5.346;2022-11-25T07:13:49;18.05;;;3.00;;
33902;SDS011;20194;50.950;5.346;2022-11-25T07:16:16;15.65;;;3.33;;
33902;SDS011;20194;50.950;5.346;2022-11-25T07:18:42;12.63;;;3.67;;
33902;SDS011;20194;50.950;5.346;2022-11-25T07:21:12;8.02;;;2.88;;
33902;SDS011;20194;50.950;5.346;2022-11-25T07:23:40;18.98;;;3.28;;
33902;SDS011;20194;50.950;5.346;2022-11-25T07:26:08;14.55;;;2.80;;
33902;SDS011;20194;50.950;5.346;2022-11-25T07:28:36;11.02;;;2.80;;
33902;SDS011;20194;50.950;5.346;2022-11-25T07:31:06;17.20;;;3.10;;
33902;SDS011;20194;50.950;5.346;2022-11-25T07:33:33;15.65;;;3.05;;
33902;SDS011;20194;50.950;5.346;2022-11-25T07:36:03;10.65;;;3.03;;
33902;SDS011;20194;50.950;5.346;2022-11-25T07:38:30;11.90;;;2.65;;
33902;SDS011;20194;50.950;5.346;2022-11-25T07:41:07;14.02;;;3.42;;
33902;SDS011;20194;50.950;5.346;2022-11-25T07:43:34;18.83;;;3.50;;
33902;SDS011;20194;50.950;5.346;2022-11-25T07:46:09;22.23;;;4.03;;
33902;SDS011;20194;50.950;5.346;2022-11-25T07:48:35;13.55;;;3.85;;
33902;SDS011;20194;50.950;5.346;2022-11-25T07:51:02;20.17;;;3.83;;
33902;SDS011;20194;50.950;5.346;2022-11-25T07:53:27;19.35;;;5.03;;
33902;SDS011;20194;50.950;5.346;2022-11-25T07:55:53;14.68;;;3.42;;
33902;SDS011;20194;50.950;5.346;2022-11-25T07:58:19;14.10;;;2.90;;
33902;SDS011;20194;50.950;5.346;2022-11-25T08:00:45;12.02;;;3.00;;
33902;SDS011;20194;50.950;5.346;2022-11-25T08:03:10;23.42;;;3.67;;
33902;SDS011;20194;50.950;5.346;2022-11-25T08:05:36;20.83;;;5.40;;
33902;SDS011;20194;50.950;5.346;2022-11-25T08:08:02;16.52;;;3.58;;
33902;SDS011;20194;50.950;5.346;2022-11-25T08:10:28;13.23;;;3.00;;
33902;SDS011;20194;50.950;5.346;2022-11-25T08:12:53;17.35;;;4.03;;
33902;SDS011;20194;50.950;5.346;2022-11-25T08:15:19;23.13;;;3.88;;
33902;SDS011;20194;50.950;5.346;2022-11-25T08:17:45;23.23;;;4.32;;
33902;SDS011;20194;50.950;5.346;2022-11-25T08:20:11;15.45;;;2.97;;
33902;SDS011;20194;50.950;5.346;2022-11-25T08:22:36;17.17;;;4.78;;
33902;SDS011;20194;50.950;5.346;2022-11-25T08:25:02;16.00;;;3.28;;
33902;SDS011;20194;50.950;5.346;2022-11-25T08:27:28;14.70;;;4.10;;
33902;SDS011;20194;50.950;5.346;2022-11-25T08:29:54;15.57;;;3.72;;
33902;SDS011;20194;50.950;5.346;2022-11-25T08:32:19;16.05;;;3.58;;
33902;SDS011;20194;50.950;5.346;2022-11-25T08:34:45;15.73;;;3.05;;
33902;SDS011;20194;50.950;5.346;2022-11-25T08:37:11;20.98;;;3.65;;
33902;SDS011;20194;50.950;5.346;2022-11-25T08:39:37;24.05;;;4.68;;
33902;SDS011;20194;50.950;5.346;2022-11-25T08:42:03;13.68;;;2.63;;
33902;SDS011;20194;50.950;5.346;2022-11-25T08:44:29;14.07;;;3.78;;
33902;SDS011;20194;50.950;5.346;2022-11-25T08:46:55;24.08;;;3.50;;
33902;SDS011;20194;50.950;5.346;2022-11-25T08:49:21;23.50;;;4.35;;
33902;SDS011;20194;50.950;5.346;2022-11-25T08:51:46;17.95;;;3.63;;
33902;SDS011;20194;50.950;5.346;2022-11-25T08:54:12;19.73;;;3.75;;
33902;SDS011;20194;50.950;5.346;2022-11-25T08:56:38;17.67;;;3.30;;
33902;SDS011;20194;50.950;5.346;2022-11-25T08:59:04;15.00;;;2.60;;
33902;SDS011;20194;50.950;5.346;2022-11-25T09:01:30;18.38;;;4.00;;
33902;SDS011;20194;50.950;5.346;2022-11-25T09:03:56;19.83;;;3.45;;
33902;SDS011;20194;50.950;5.346;2022-11-25T09:06:23;17.70;;;3.00;;
33902;SDS011;20194;50.950;5.346;2022-11-25T09:08:52;23.85;;;3.45;;
33902;SDS011;20194;50.950;5.346;2022-11-25T09:11:19;19.00;;;3.03;;
33902;SDS011;20194;50.950;5.346;2022-11-25T09:13:45;19.23;;;3.50;;
33902;SDS011;20194;50.950;5.346;2022-11-25T09:16:11;22.65;;;4.05;;
33902;SDS011;20194;50.950;5.346;2022-11-25T09:18:36;14.85;;;3.03;;
33902;SDS011;20194;50.950;5.346;2022-11-25T09:21:08;15.75;;;3.00;;
33902;SDS011;20194;50.950;5.346;2022-11-25T09:23:35;16.60;;;3.75;;
33902;SDS011;20194;50.950;5.346;2022-11-25T09:26:03;23.15;;;3.50;;
33902;SDS011;20194;50.950;5.346;2022-11-25T09:28:33;23.95;;;4.75;;
33902;SDS011;20194;50.950;5.346;2022-11-25T09:31:07;21.02;;;2.95;;
33902;SDS011;20194;50.950;5.346;2022-11-25T09:33:33;18.97;;;2.97;;
33902;SDS011;20194;50.950;5.346;2022-11-25T09:36:00;35.45;;;3.30;;
33902;SDS011;20194;50.950;5.346;2022-11-25T09:38:26;16.25;;;3.28;;
33902;SDS011;20194;50.950;5.346;2022-11-25T09:55:08;12.07;;;2.80;;
33902;SDS011;20194;50.950;5.346;2022-11-25T10:00:37;19.02;;;3.55;;
33902;SDS011;20194;50.950;5.346;2022-11-25T10:06:03;23.98;;;3.58;;
33902;SDS011;20194;50.950;5.346;2022-11-25T10:08:47;20.08;;;3.60;;
33902;SDS011;20194;50.950;5.346;2022-11-25T10:17:06;18.08;;;3.63;;
33902;SDS011;20194;50.950;5.346;2022-11-25T10:20:01;17.25;;;3.17;;
33902;SDS011;20194;50.950;5.346;2022-11-25T10:22:32;23.05;;;3.85;;
33902;SDS011;20194;50.950;5.346;2022-11-25T10:25:22;16.10;;;2.88;;
33902;SDS011;20194;50.950;5.346;2022-11-25T10:30:18;22.10;;;3.20;;
33902;SDS011;20194;50.950;5.346;2022-11-25T10:32:48;15.75;;;4.18;;
33902;SDS011;20194;50.950;5.346;2022-11-25T10:35:40;14.85;;;3.05;;
33902;SDS011;20194;50.950;5.346;2022-11-25T10:38:25;14.60;;;3.20;;
33902;SDS011;20194;50.950;5.346;2022-11-25T10:41:16;14.95;;;2.67;;
33902;SDS011;20194;50.950;5.346;2022-11-25T10:43:45;14.63;;;2.97;;
33902;SDS011;20194;50.950;5.346;2022-11-25T10:51:36;14.77;;;3.03;;
33902;SDS011;20194;50.950;5.346;2022-11-25T10:54:08;16.75;;;2.80;;
33902;SDS011;20194;50.950;5.346;2022-11-25T10:59:22;15.38;;;3.20;;
33902;SDS011;20194;50.950;5.346;2022-11-25T11:02:11;9.50;;;2.60;;
33902;SDS011;20194;50.950;5.346;2022-11-25T11:07:19;14.52;;;2.75;;
33902;SDS011;20194;50.950;5.346;2022-11-25T11:09:45;10.75;;;1.85;;
33902;SDS011;20194;50.950;5.346;2022-11-25T11:12:26;10.90;;;2.40;;
33902;SDS011;20194;50.950;5.346;2022-11-25T11:14:53;8.38;;;2.33;;
33902;SDS011;20194;50.950;5.346;2022-11-25T11:17:43;13.20;;;2.30;;
33902;SDS011;20194;50.950;5.346;2022-11-25T11:20:13;11.95;;;2.33;;
33902;SDS011;20194;50.950;5.346;2022-11-25T11:22:45;9.60;;;1.83;;
33902;SDS011;20194;50.950;5.346;2022-11-25T11:27:49;13.93;;;2.38;;
33902;SDS011;20194;50.950;5.346;2022-11-25T11:30:18;13.15;;;2.78;;
33902;SDS011;20194;50.950;5.346;2022-11-25T11:33:08;9.68;;;2.38;;
33902;SDS011;20194;50.950;5.346;2022-11-25T11:36:09;11.57;;;2.22;;
33902;SDS011;20194;50.950;5.346;2022-11-25T11:38:45;9.38;;;1.95;;
33902;SDS011;20194;50.950;5.346;2022-11-25T11:46:39;8.52;;;2.03;;
33902;SDS011;20194;50.950;5.346;2022-11-25T11:52:19;8.65;;;2.35;;
33902;SDS011;20194;50.950;5.346;2022-11-25T12:04:07;7.63;;;2.00;;
33902;SDS011;20194;50.950;5.346;2022-11-25T12:06:45;9.88;;;1.77;;
33902;SDS011;20194;50.950;5.346;2022-11-25T12:09:40;7.07;;;1.87;;
33902;SDS011;20194;50.950;5.346;2022-11-25T12:12:20;6.25;;;1.70;;
33902;SDS011;20194;50.950;5.346;2022-11-25T12:14:59;12.38;;;2.80;;
33902;SDS011;20194;50.950;5.346;2022-11-25T12:17:31;7.13;;;2.65;;
33902;SDS011;20194;50.950;5.346;2022-11-25T12:23:05;9.13;;;1.70;;
33902;SDS011;20194;50.950;5.346;2022-11-25T12:25:55;12.25;;;1.60;;
33902;SDS011;20194;50.950;5.346;2022-11-25T12:28:30;3.90;;;1.00;;
33902;SDS011;20194;50.950;5.346;2022-11-25T12:31:18;3.90;;;1.40;;
33902;SDS011;20194;50.950;5.346;2022-11-25T12:37:12;6.90;;;1.73;;
33902;SDS011;20194;50.950;5.346;2022-11-25T12:39:51;6.88;;;1.15;;
33902;SDS011;20194;50.950;5.346;2022-11-25T12:42:24;7.63;;;1.60;;
33902;SDS011;20194;50.950;5.346;2022-11-25T12:44:56;7.10;;;1.70;;
33902;SDS011;20194;50.950;5.346;2022-11-25T12:47:26;4.28;;;1.60;;
33902;SDS011;20194;50.950;5.346;2022-11-25T12:49:52;4.32;;;1.25;;
33902;SDS011;20194;50.950;5.346;2022-11-25T12:55:39;9.07;;;1.35;;
33902;SDS011;20194;50.950;5.346;2022-11-25T13:01:18;10.73;;;2.05;;
33902;SDS011;20194;50.950;5.346;2022-11-25T13:04:15;5.07;;;1.50;;
33902;SDS011;20194;50.950;5.346;2022-11-25T13:09:51;10.63;;;1.60;;
33902;SDS011;20194;50.950;5.346;2022-11-25T13:12:46;10.40;;;2.00;;
33902;SDS011;20194;50.950;5.346;2022-11-25T13:17:53;7.97;;;1.80;;
33902;SDS011;20194;50.950;5.346;2022-11-25T13:25:41;13.98;;;1.85;;
33902;SDS011;20194;50.950;5.346;2022-11-25T13:28:28;11.07;;;2.03;;
33902;SDS011;20194;50.950;5.346;2022-11-25T13:36:17;5.60;;;2.00;;
33902;SDS011;20194;50.950;5.346;2022-11-25T13:43:54;8.70;;;2.20;;
33902;SDS011;20194;50.950;5.346;2022-11-25T13:46:38;8.63;;;1.80;;
33902;SDS011;20194;50.950;5.346;2022-11-25T13:49:22;15.35;;;2.58;;
33902;SDS011;20194;50.950;5.346;2022-11-25T13:51:55;9.18;;;2.08;;
33902;SDS011;20194;50.950;5.346;2022-11-25T13:54:31;7.80;;;1.70;;
33902;SDS011;20194;50.950;5.346;2022-11-25T14:13:04;17.73;;;2.47;;
33902;SDS011;20194;50.950;5.346;2022-11-25T14:21:05;13.02;;;2.33;;
33902;SDS011;20194;50.950;5.346;2022-11-25T14:23:43;6.47;;;1.83;;
33902;SDS011;20194;50.950;5.346;2022-11-25T14:26:25;10.43;;;2.40;;
33902;SDS011;20194;50.950;5.346;2022-11-25T14:29:07;13.02;;;2.10;;
33902;SDS011;20194;50.950;5.346;2022-11-25T14:31:44;9.90;;;3.03;;
33902;SDS011;20194;50.950;5.346;2022-11-25T14:34:26;12.80;;;2.63;;
33902;SDS011;20194;50.950;5.346;2022-11-25T14:37:00;8.27;;;2.15;;
33902;SDS011;20194;50.950;5.346;2022-11-25T14:42:32;19.98;;;3.20;;
33902;SDS011;20194;50.950;5.346;2022-11-25T14:45:01;12.57;;;3.13;;
33902;SDS011;20194;50.950;5.346;2022-11-25T14:47:29;16.38;;;3.35;;
33902;SDS011;20194;50.950;5.346;2022-11-25T14:50:00;12.43;;;2.42;;
33902;SDS011;20194;50.950;5.346;2022-11-25T14:52:31;16.23;;;3.15;;
33902;SDS011;20194;50.950;5.346;2022-11-25T14:54:59;15.15;;;2.92;;
33902;SDS011;20194;50.950;5.346;2022-11-25T14:57:31;14.23;;;2.30;;
33902;SDS011;20194;50.950;5.346;2022-11-25T15:00:06;16.85;;;4.07;;
33902;SDS011;20194;50.950;5.346;2022-11-25T15:02:41;17.08;;;4.25;;
33902;SDS011;20194;50.950;5.346;2022-11-25T15:05:20;19.15;;;2.67;;
33902;SDS011;20194;50.950;5.346;2022-11-25T15:08:02;10.13;;;2.33;;
33902;SDS011;20194;50.950;5.346;2022-11-25T15:15:53;19.40;;;3.03;;
33902;SDS011;20194;50.950;5.346;2022-11-25T15:18:23;13.65;;;2.35;;
33902;SDS011;20194;50.950;5.346;2022-11-25T15:20:52;18.67;;;3.15;;
33902;SDS011;20194;50.950;5.346;2022-11-25T15:23:24;13.38;;;4.22;;
33902;SDS011;20194;50.950;5.346;2022-11-25T15:25:55;22.65;;;3.50;;
33902;SDS011;20194;50.950;5.346;2022-11-25T15:28:22;10.85;;;3.10;;
33902;SDS011;20194;50.950;5.346;2022-11-25T15:30:55;11.23;;;3.00;;
33902;SDS011;20194;50.950;5.346;2022-11-25T15:33:22;14.98;;;2.88;;
33902;SDS011;20194;50.950;5.346;2022-11-25T15:35:49;18.52;;;4.05;;
33902;SDS011;20194;50.950;5.346;2022-11-25T15:38:33;19.70;;;3.25;;
33902;SDS011;20194;50.950;5.346;2022-11-25T15:41:05;18.98;;;3.33;;
33902;SDS011;20194;50.950;5.346;2022-11-25T15:43:48;19.90;;;3.40;;
33902;SDS011;20194;50.950;5.346;2022-11-25T15:46:16;17.70;;;3.60;;
33902;SDS011;20194;50.950;5.346;2022-11-25T15:48:43;18.25;;;4.00;;
33902;SDS011;20194;50.950;5.346;2022-11-25T15:51:28;20.95;;;4.45;;
33902;SDS011;20194;50.950;5.346;2022-11-25T15:56:59;18.98;;;3.25;;
33902;SDS011;20194;50.950;5.346;2022-11-25T15:59:39;11.40;;;2.90;;
33902;SDS011;20194;50.950;5.346;2022-11-25T16:07:39;16.67;;;3.75;;
33902;SDS011;20194;50.950;5.346;2022-11-25T16:10:20;21.70;;;3.67;;
33902;SDS011;20194;50.950;5.346;2022-11-25T16:15:48;20.02;;;4.25;;
33902;SDS011;20194;50.950;5.346;2022-11-25T16:18:41;19.40;;;3.72;;
33902;SDS011;20194;50.950;5.346;2022-11-25T16:21:12;19.35;;;4.20;;
33902;SDS011;20194;50.950;5.346;2022-11-25T16:23:45;18.92;;;3.65;;
33902;SDS011;20194;50.950;5.346;2022-11-25T16:26:16;21.83;;;4.13;;
33902;SDS011;20194;50.950;5.346;2022-11-25T16:28:51;22.55;;;5.45;;
33902;SDS011;20194;50.950;5.346;2022-11-25T16:31:20;18.92;;;5.85;;
33902;SDS011;20194;50.950;5.346;2022-11-25T16:33:46;19.73;;;5.95;;
33902;SDS011;20194;50.950;5.346;2022-11-25T16:36:11;14.40;;;3.58;;
33902;SDS011;20194;50.950;5.346;2022-11-25T16:38:37;15.30;;;4.50;;
33902;SDS011;20194;50.950;5.346;2022-11-25T16:41:09;16.75;;;3.15;;
33902;SDS011;20194;50.950;5.346;2022-11-25T16:43:43;19.67;;;3.65;;
33902;SDS011;20194;50.950;5.346;2022-11-25T16:46:09;32.50;;;5.32;;
33902;SDS011;20194;50.950;5.346;2022-11-25T16:48:38;15.70;;;3.67;;
33902;SDS011;20194;50.950;5.346;2022-11-25T16:51:07;15.85;;;3.72;;
33902;SDS011;20194;50.950;5.346;2022-11-25T16:53:37;16.80;;;3.55;;
33902;SDS011;20194;50.950;5.346;2022-11-25T16:56:03;14.85;;;4.30;;
33902;SDS011;20194;50.950;5.346;2022-11-25T16:58:29;17.40;;;4.05;;
33902;SDS011;20194;50.950;5.346;2022-11-25T17:00:55;17.08;;;3.55;;
33902;SDS011;20194;50.950;5.346;2022-11-25T17:03:21;10.18;;;3.10;;
33902;SDS011;20194;50.950;5.346;2022-11-25T17:05:51;14.68;;;4.10;;
33902;SDS011;20194;50.950;5.346;2022-11-25T17:08:19;24.20;;;4.60;;
33902;SDS011;20194;50.950;5.346;2022-11-25T17:10:45;12.07;;;3.65;;
33902;SDS011;20194;50.950;5.346;2022-11-25T17:13:20;18.02;;;4.97;;
33902;SDS011;20194;50.950;5.346;2022-11-25T17:15:49;28.13;;;3.97;;